Аэропорт: Михайловка. Барнаул

ICAO: UNBB

METAR:
2020-08-09 22:30:00
UNBB 092230Z 04002MPS CAVOK 19/12 Q1001 R06/CLRD66 NOSIG RMK QFE728
METAR:
2020-08-09 20:00:00
TAF UNBB 092000Z 0921/1021 09003G08MPS 9999 SCT040 BECMG 1005/1007 SCT030CB